sensor_id;sensor_type;location;lat;lon;timestamp;P1;durP1;ratioP1;P2;durP2;ratioP2
19301;SDS011;9785;59.362;12.152;2023-05-10T00:02:03;5.60;;;1.60;;
19301;SDS011;9785;59.362;12.152;2023-05-10T00:04:32;3.37;;;1.70;;
19301;SDS011;9785;59.362;12.152;2023-05-10T00:07:01;3.67;;;1.87;;
19301;SDS011;9785;59.362;12.152;2023-05-10T00:09:29;3.80;;;1.90;;
19301;SDS011;9785;59.362;12.152;2023-05-10T00:11:58;7.73;;;1.70;;
19301;SDS011;9785;59.362;12.152;2023-05-10T00:14:26;1.90;;;1.80;;
19301;SDS011;9785;59.362;12.152;2023-05-10T00:16:55;1.70;;;1.60;;
19301;SDS011;9785;59.362;12.152;2023-05-10T00:19:25;4.67;;;1.63;;
19301;SDS011;9785;59.362;12.152;2023-05-10T00:21:54;2.93;;;1.80;;
19301;SDS011;9785;59.362;12.152;2023-05-10T00:24:22;1.60;;;1.50;;
19301;SDS011;9785;59.362;12.152;2023-05-10T00:26:51;1.80;;;1.70;;
19301;SDS011;9785;59.362;12.152;2023-05-10T00:29:20;5.03;;;1.80;;
19301;SDS011;9785;59.362;12.152;2023-05-10T00:31:48;1.90;;;1.70;;
19301;SDS011;9785;59.362;12.152;2023-05-10T00:34:17;1.80;;;1.70;;
19301;SDS011;9785;59.362;12.152;2023-05-10T00:36:47;1.67;;;1.57;;
19301;SDS011;9785;59.362;12.152;2023-05-10T00:39:15;3.13;;;1.70;;
19301;SDS011;9785;59.362;12.152;2023-05-10T00:41:44;3.17;;;1.83;;
19301;SDS011;9785;59.362;12.152;2023-05-10T00:44:12;4.17;;;1.77;;
19301;SDS011;9785;59.362;12.152;2023-05-10T00:46:41;4.40;;;1.47;;
19301;SDS011;9785;59.362;12.152;2023-05-10T00:49:10;2.20;;;1.70;;
19301;SDS011;9785;59.362;12.152;2023-05-10T00:51:38;1.70;;;1.60;;
19301;SDS011;9785;59.362;12.152;2023-05-10T00:54:10;1.70;;;1.60;;
19301;SDS011;9785;59.362;12.152;2023-05-10T00:56:39;1.83;;;1.73;;
19301;SDS011;9785;59.362;12.152;2023-05-10T00:59:09;2.70;;;1.67;;
19301;SDS011;9785;59.362;12.152;2023-05-10T01:01:38;2.93;;;2.03;;
19301;SDS011;9785;59.362;12.152;2023-05-10T01:04:07;2.00;;;1.90;;
19301;SDS011;9785;59.362;12.152;2023-05-10T01:06:36;2.00;;;1.77;;
19301;SDS011;9785;59.362;12.152;2023-05-10T01:09:04;1.93;;;1.83;;
19301;SDS011;9785;59.362;12.152;2023-05-10T01:11:34;3.07;;;1.77;;
19301;SDS011;9785;59.362;12.152;2023-05-10T01:14:03;1.60;;;1.50;;
19301;SDS011;9785;59.362;12.152;2023-05-10T01:16:34;2.03;;;1.70;;
19301;SDS011;9785;59.362;12.152;2023-05-10T01:19:03;3.63;;;1.50;;
19301;SDS011;9785;59.362;12.152;2023-05-10T01:21:35;1.93;;;1.70;;
19301;SDS011;9785;59.362;12.152;2023-05-10T01:24:31;3.23;;;2.07;;
19301;SDS011;9785;59.362;12.152;2023-05-10T01:32:49;1.80;;;1.63;;
19301;SDS011;9785;59.362;12.152;2023-05-10T01:35:22;3.60;;;1.77;;
19301;SDS011;9785;59.362;12.152;2023-05-10T01:37:57;2.80;;;2.07;;
19301;SDS011;9785;59.362;12.152;2023-05-10T01:40:29;1.93;;;1.73;;
19301;SDS011;9785;59.362;12.152;2023-05-10T01:42:59;3.03;;;1.77;;
19301;SDS011;9785;59.362;12.152;2023-05-10T01:45:30;4.50;;;1.93;;
19301;SDS011;9785;59.362;12.152;2023-05-10T01:48:03;2.20;;;2.00;;
19301;SDS011;9785;59.362;12.152;2023-05-10T01:50:34;5.40;;;1.70;;
19301;SDS011;9785;59.362;12.152;2023-05-10T01:53:04;2.83;;;1.70;;
19301;SDS011;9785;59.362;12.152;2023-05-10T01:55:35;3.93;;;1.93;;
19301;SDS011;9785;59.362;12.152;2023-05-10T01:58:05;5.03;;;1.93;;
19301;SDS011;9785;59.362;12.152;2023-05-10T02:00:34;1.83;;;1.73;;
19301;SDS011;9785;59.362;12.152;2023-05-10T02:03:05;1.97;;;1.87;;
19301;SDS011;9785;59.362;12.152;2023-05-10T02:05:34;4.37;;;1.97;;
19301;SDS011;9785;59.362;12.152;2023-05-10T02:08:05;1.90;;;1.80;;
19301;SDS011;9785;59.362;12.152;2023-05-10T02:10:34;1.70;;;1.50;;
19301;SDS011;9785;59.362;12.152;2023-05-10T02:13:03;5.80;;;1.87;;
19301;SDS011;9785;59.362;12.152;2023-05-10T02:15:33;2.97;;;1.73;;
19301;SDS011;9785;59.362;12.152;2023-05-10T02:18:03;1.90;;;1.73;;
19301;SDS011;9785;59.362;12.152;2023-05-10T02:20:34;2.37;;;1.70;;
19301;SDS011;9785;59.362;12.152;2023-05-10T02:23:03;1.77;;;1.70;;
19301;SDS011;9785;59.362;12.152;2023-05-10T02:25:31;6.70;;;1.80;;
19301;SDS011;9785;59.362;12.152;2023-05-10T02:28:01;3.03;;;1.90;;
19301;SDS011;9785;59.362;12.152;2023-05-10T02:30:31;2.60;;;1.70;;
19301;SDS011;9785;59.362;12.152;2023-05-10T02:32:59;6.37;;;2.00;;
19301;SDS011;9785;59.362;12.152;2023-05-10T02:35:29;7.03;;;1.90;;
19301;SDS011;9785;59.362;12.152;2023-05-10T02:38:01;1.93;;;1.80;;
19301;SDS011;9785;59.362;12.152;2023-05-10T02:40:29;4.07;;;1.90;;
19301;SDS011;9785;59.362;12.152;2023-05-10T02:42:58;3.70;;;1.70;;
19301;SDS011;9785;59.362;12.152;2023-05-10T02:45:27;2.00;;;1.90;;
19301;SDS011;9785;59.362;12.152;2023-05-10T02:47:57;2.00;;;1.80;;
19301;SDS011;9785;59.362;12.152;2023-05-10T02:50:27;2.57;;;2.00;;
19301;SDS011;9785;59.362;12.152;2023-05-10T02:52:58;3.47;;;2.13;;
19301;SDS011;9785;59.362;12.152;2023-05-10T02:55:31;2.33;;;2.10;;
19301;SDS011;9785;59.362;12.152;2023-05-10T02:58:00;3.50;;;1.83;;
19301;SDS011;9785;59.362;12.152;2023-05-10T03:00:29;2.10;;;1.77;;
19301;SDS011;9785;59.362;12.152;2023-05-10T03:02:57;5.20;;;1.97;;
19301;SDS011;9785;59.362;12.152;2023-05-10T03:05:26;3.43;;;2.10;;
19301;SDS011;9785;59.362;12.152;2023-05-10T03:07:55;2.20;;;2.00;;
19301;SDS011;9785;59.362;12.152;2023-05-10T03:10:27;5.37;;;2.20;;
19301;SDS011;9785;59.362;12.152;2023-05-10T03:13:05;2.40;;;2.20;;
19301;SDS011;9785;59.362;12.152;2023-05-10T03:15:37;3.40;;;2.13;;
19301;SDS011;9785;59.362;12.152;2023-05-10T03:18:09;3.37;;;2.00;;
19301;SDS011;9785;59.362;12.152;2023-05-10T03:20:41;2.70;;;2.03;;
19301;SDS011;9785;59.362;12.152;2023-05-10T03:23:11;1.83;;;1.73;;
19301;SDS011;9785;59.362;12.152;2023-05-10T03:25:40;4.10;;;1.90;;
19301;SDS011;9785;59.362;12.152;2023-05-10T03:28:11;5.50;;;2.30;;
19301;SDS011;9785;59.362;12.152;2023-05-10T03:30:40;2.40;;;2.00;;
19301;SDS011;9785;59.362;12.152;2023-05-10T03:33:09;2.10;;;1.90;;
19301;SDS011;9785;59.362;12.152;2023-05-10T03:35:39;3.33;;;1.90;;
19301;SDS011;9785;59.362;12.152;2023-05-10T03:38:07;2.03;;;1.83;;
19301;SDS011;9785;59.362;12.152;2023-05-10T03:40:36;5.00;;;2.07;;
19301;SDS011;9785;59.362;12.152;2023-05-10T03:43:05;2.57;;;2.00;;
19301;SDS011;9785;59.362;12.152;2023-05-10T03:45:35;2.10;;;2.00;;
19301;SDS011;9785;59.362;12.152;2023-05-10T03:48:04;3.10;;;1.87;;
19301;SDS011;9785;59.362;12.152;2023-05-10T03:50:32;3.43;;;1.83;;
19301;SDS011;9785;59.362;12.152;2023-05-10T03:53:01;3.73;;;2.00;;
19301;SDS011;9785;59.362;12.152;2023-05-10T03:55:30;4.87;;;1.83;;
19301;SDS011;9785;59.362;12.152;2023-05-10T03:58:00;5.10;;;2.10;;
19301;SDS011;9785;59.362;12.152;2023-05-10T04:00:29;2.57;;;1.70;;
19301;SDS011;9785;59.362;12.152;2023-05-10T04:02:59;2.00;;;1.90;;
19301;SDS011;9785;59.362;12.152;2023-05-10T04:05:28;4.40;;;2.27;;
19301;SDS011;9785;59.362;12.152;2023-05-10T04:07:56;3.17;;;2.10;;
19301;SDS011;9785;59.362;12.152;2023-05-10T04:10:25;2.00;;;1.90;;
19301;SDS011;9785;59.362;12.152;2023-05-10T04:12:53;3.47;;;2.00;;
19301;SDS011;9785;59.362;12.152;2023-05-10T04:15:22;6.93;;;2.07;;
19301;SDS011;9785;59.362;12.152;2023-05-10T04:17:50;2.20;;;1.90;;
19301;SDS011;9785;59.362;12.152;2023-05-10T04:20:21;2.23;;;2.03;;
19301;SDS011;9785;59.362;12.152;2023-05-10T04:22:50;2.17;;;2.00;;
19301;SDS011;9785;59.362;12.152;2023-05-10T04:25:18;2.30;;;1.83;;
19301;SDS011;9785;59.362;12.152;2023-05-10T04:27:47;3.17;;;1.93;;
19301;SDS011;9785;59.362;12.152;2023-05-10T04:30:16;2.03;;;1.80;;
19301;SDS011;9785;59.362;12.152;2023-05-10T04:32:44;3.10;;;2.10;;
19301;SDS011;9785;59.362;12.152;2023-05-10T04:35:13;2.27;;;2.00;;
19301;SDS011;9785;59.362;12.152;2023-05-10T04:37:43;5.43;;;2.17;;
19301;SDS011;9785;59.362;12.152;2023-05-10T04:40:12;6.40;;;2.77;;
19301;SDS011;9785;59.362;12.152;2023-05-10T04:42:41;2.53;;;2.20;;
19301;SDS011;9785;59.362;12.152;2023-05-10T04:45:10;4.33;;;2.10;;
19301;SDS011;9785;59.362;12.152;2023-05-10T04:47:38;2.20;;;2.00;;
19301;SDS011;9785;59.362;12.152;2023-05-10T04:50:07;2.13;;;2.00;;
19301;SDS011;9785;59.362;12.152;2023-05-10T04:52:36;3.67;;;2.10;;
19301;SDS011;9785;59.362;12.152;2023-05-10T04:55:06;2.40;;;2.07;;
19301;SDS011;9785;59.362;12.152;2023-05-10T04:57:36;3.00;;;2.13;;
19301;SDS011;9785;59.362;12.152;2023-05-10T05:00:05;2.90;;;2.20;;
19301;SDS011;9785;59.362;12.152;2023-05-10T05:02:36;3.53;;;2.07;;
19301;SDS011;9785;59.362;12.152;2023-05-10T05:05:05;2.87;;;2.03;;
19301;SDS011;9785;59.362;12.152;2023-05-10T05:07:33;3.20;;;2.10;;
19301;SDS011;9785;59.362;12.152;2023-05-10T05:10:02;1.93;;;1.83;;
19301;SDS011;9785;59.362;12.152;2023-05-10T05:12:32;3.57;;;2.10;;
19301;SDS011;9785;59.362;12.152;2023-05-10T05:15:01;2.97;;;2.13;;
19301;SDS011;9785;59.362;12.152;2023-05-10T05:17:32;2.37;;;2.17;;
19301;SDS011;9785;59.362;12.152;2023-05-10T05:20:01;4.50;;;2.30;;
19301;SDS011;9785;59.362;12.152;2023-05-10T05:22:30;3.33;;;2.53;;
19301;SDS011;9785;59.362;12.152;2023-05-10T05:24:58;2.60;;;2.20;;
19301;SDS011;9785;59.362;12.152;2023-05-10T05:27:28;2.43;;;2.23;;
19301;SDS011;9785;59.362;12.152;2023-05-10T05:29:58;6.43;;;2.37;;
19301;SDS011;9785;59.362;12.152;2023-05-10T05:32:27;5.80;;;2.33;;
19301;SDS011;9785;59.362;12.152;2023-05-10T05:34:55;3.77;;;2.20;;
19301;SDS011;9785;59.362;12.152;2023-05-10T05:37:24;3.50;;;2.03;;
19301;SDS011;9785;59.362;12.152;2023-05-10T05:39:53;2.20;;;1.90;;
19301;SDS011;9785;59.362;12.152;2023-05-10T05:42:21;2.57;;;2.17;;
19301;SDS011;9785;59.362;12.152;2023-05-10T05:44:50;4.10;;;2.10;;
19301;SDS011;9785;59.362;12.152;2023-05-10T05:47:20;2.60;;;2.20;;
19301;SDS011;9785;59.362;12.152;2023-05-10T05:49:48;5.57;;;2.20;;
19301;SDS011;9785;59.362;12.152;2023-05-10T05:52:17;9.27;;;2.30;;
19301;SDS011;9785;59.362;12.152;2023-05-10T05:54:47;2.63;;;2.17;;
19301;SDS011;9785;59.362;12.152;2023-05-10T05:57:16;3.87;;;2.47;;
19301;SDS011;9785;59.362;12.152;2023-05-10T05:59:44;5.93;;;2.23;;
19301;SDS011;9785;59.362;12.152;2023-05-10T06:02:13;7.50;;;2.50;;
19301;SDS011;9785;59.362;12.152;2023-05-10T06:04:43;2.50;;;1.90;;
19301;SDS011;9785;59.362;12.152;2023-05-10T06:07:12;2.87;;;2.03;;
19301;SDS011;9785;59.362;12.152;2023-05-10T06:09:40;3.93;;;2.00;;
19301;SDS011;9785;59.362;12.152;2023-05-10T06:12:09;2.33;;;2.13;;
19301;SDS011;9785;59.362;12.152;2023-05-10T06:14:38;3.63;;;2.20;;
19301;SDS011;9785;59.362;12.152;2023-05-10T06:17:06;2.40;;;2.30;;
19301;SDS011;9785;59.362;12.152;2023-05-10T06:19:35;3.67;;;2.30;;
19301;SDS011;9785;59.362;12.152;2023-05-10T06:22:05;2.70;;;1.83;;
19301;SDS011;9785;59.362;12.152;2023-05-10T06:24:35;4.10;;;2.33;;
19301;SDS011;9785;59.362;12.152;2023-05-10T06:27:03;4.30;;;2.10;;
19301;SDS011;9785;59.362;12.152;2023-05-10T06:29:32;4.63;;;2.20;;
19301;SDS011;9785;59.362;12.152;2023-05-10T06:32:01;3.63;;;2.47;;
19301;SDS011;9785;59.362;12.152;2023-05-10T06:34:29;2.90;;;2.43;;
19301;SDS011;9785;59.362;12.152;2023-05-10T06:36:58;4.73;;;2.27;;
19301;SDS011;9785;59.362;12.152;2023-05-10T06:39:28;3.17;;;2.40;;
19301;SDS011;9785;59.362;12.152;2023-05-10T06:41:57;3.90;;;2.23;;
19301;SDS011;9785;59.362;12.152;2023-05-10T06:44:26;5.10;;;2.37;;
19301;SDS011;9785;59.362;12.152;2023-05-10T06:46:54;3.13;;;2.20;;
19301;SDS011;9785;59.362;12.152;2023-05-10T06:49:23;3.73;;;2.50;;
19301;SDS011;9785;59.362;12.152;2023-05-10T06:51:51;5.23;;;2.20;;
19301;SDS011;9785;59.362;12.152;2023-05-10T06:54:20;4.10;;;2.30;;
19301;SDS011;9785;59.362;12.152;2023-05-10T06:56:50;2.03;;;1.93;;
19301;SDS011;9785;59.362;12.152;2023-05-10T06:59:19;2.30;;;2.10;;
19301;SDS011;9785;59.362;12.152;2023-05-10T07:01:48;2.20;;;2.10;;
19301;SDS011;9785;59.362;12.152;2023-05-10T07:04:16;5.07;;;2.20;;
19301;SDS011;9785;59.362;12.152;2023-05-10T07:06:45;5.47;;;2.23;;
19301;SDS011;9785;59.362;12.152;2023-05-10T07:09:14;4.10;;;2.40;;
19301;SDS011;9785;59.362;12.152;2023-05-10T07:11:43;2.80;;;2.23;;
19301;SDS011;9785;59.362;12.152;2023-05-10T07:14:13;5.57;;;2.40;;
19301;SDS011;9785;59.362;12.152;2023-05-10T07:16:41;4.73;;;2.20;;
19301;SDS011;9785;59.362;12.152;2023-05-10T07:19:10;3.47;;;2.50;;
19301;SDS011;9785;59.362;12.152;2023-05-10T07:21:39;2.80;;;2.47;;
19301;SDS011;9785;59.362;12.152;2023-05-10T07:24:09;2.60;;;2.40;;
19301;SDS011;9785;59.362;12.152;2023-05-10T07:26:38;2.50;;;2.30;;
19301;SDS011;9785;59.362;12.152;2023-05-10T07:29:06;5.00;;;2.30;;
19301;SDS011;9785;59.362;12.152;2023-05-10T07:31:36;5.87;;;2.03;;
19301;SDS011;9785;59.362;12.152;2023-05-10T07:34:05;7.00;;;2.30;;
19301;SDS011;9785;59.362;12.152;2023-05-10T07:36:34;5.87;;;2.33;;
19301;SDS011;9785;59.362;12.152;2023-05-10T07:39:02;3.90;;;2.30;;
19301;SDS011;9785;59.362;12.152;2023-05-10T07:41:31;4.97;;;2.40;;
19301;SDS011;9785;59.362;12.152;2023-05-10T07:44:01;2.50;;;2.30;;
19301;SDS011;9785;59.362;12.152;2023-05-10T07:46:30;3.17;;;2.13;;
19301;SDS011;9785;59.362;12.152;2023-05-10T07:49:00;4.23;;;2.40;;
19301;SDS011;9785;59.362;12.152;2023-05-10T07:51:29;4.70;;;2.40;;
19301;SDS011;9785;59.362;12.152;2023-05-10T07:53:58;4.23;;;2.20;;
19301;SDS011;9785;59.362;12.152;2023-05-10T07:56:26;2.30;;;2.20;;
19301;SDS011;9785;59.362;12.152;2023-05-10T07:58:56;4.60;;;2.50;;
19301;SDS011;9785;59.362;12.152;2023-05-10T08:01:25;4.93;;;2.40;;
19301;SDS011;9785;59.362;12.152;2023-05-10T08:03:53;2.90;;;2.40;;
19301;SDS011;9785;59.362;12.152;2023-05-10T08:06:23;3.10;;;2.50;;
19301;SDS011;9785;59.362;12.152;2023-05-10T08:08:53;2.90;;;2.50;;
19301;SDS011;9785;59.362;12.152;2023-05-10T08:11:22;3.03;;;2.10;;
19301;SDS011;9785;59.362;12.152;2023-05-10T08:13:50;3.60;;;2.40;;
19301;SDS011;9785;59.362;12.152;2023-05-10T08:16:19;6.67;;;2.27;;
19301;SDS011;9785;59.362;12.152;2023-05-10T08:18:48;3.07;;;2.30;;
19301;SDS011;9785;59.362;12.152;2023-05-10T08:21:17;4.57;;;2.37;;
19301;SDS011;9785;59.362;12.152;2023-05-10T08:23:47;7.60;;;2.53;;
19301;SDS011;9785;59.362;12.152;2023-05-10T08:26:15;4.27;;;2.33;;
19301;SDS011;9785;59.362;12.152;2023-05-10T08:28:44;3.03;;;2.63;;
19301;SDS011;9785;59.362;12.152;2023-05-10T08:31:13;5.23;;;2.50;;
19301;SDS011;9785;59.362;12.152;2023-05-10T08:33:42;3.37;;;2.33;;
19301;SDS011;9785;59.362;12.152;2023-05-10T08:36:10;3.67;;;2.20;;
19301;SDS011;9785;59.362;12.152;2023-05-10T08:38:49;2.60;;;2.40;;
19301;SDS011;9785;59.362;12.152;2023-05-10T08:41:19;5.20;;;2.37;;
19301;SDS011;9785;59.362;12.152;2023-05-10T08:43:48;2.50;;;2.30;;
19301;SDS011;9785;59.362;12.152;2023-05-10T08:46:17;2.37;;;2.20;;
19301;SDS011;9785;59.362;12.152;2023-05-10T08:48:46;3.60;;;2.30;;
19301;SDS011;9785;59.362;12.152;2023-05-10T08:51:15;3.87;;;2.50;;
19301;SDS011;9785;59.362;12.152;2023-05-10T08:53:46;3.97;;;2.67;;
19301;SDS011;9785;59.362;12.152;2023-05-10T08:56:15;3.73;;;2.50;;
19301;SDS011;9785;59.362;12.152;2023-05-10T08:58:44;3.93;;;2.40;;
19301;SDS011;9785;59.362;12.152;2023-05-10T09:01:13;3.03;;;2.23;;
19301;SDS011;9785;59.362;12.152;2023-05-10T09:03:42;3.80;;;2.73;;
19301;SDS011;9785;59.362;12.152;2023-05-10T09:06:11;3.00;;;2.47;;
19301;SDS011;9785;59.362;12.152;2023-05-10T09:08:41;4.13;;;2.57;;
19301;SDS011;9785;59.362;12.152;2023-05-10T09:11:12;3.47;;;2.53;;
19301;SDS011;9785;59.362;12.152;2023-05-10T09:13:40;2.97;;;2.50;;
19301;SDS011;9785;59.362;12.152;2023-05-10T09:16:11;3.87;;;2.53;;
19301;SDS011;9785;59.362;12.152;2023-05-10T09:18:45;3.53;;;2.80;;
19301;SDS011;9785;59.362;12.152;2023-05-10T09:21:14;2.30;;;2.10;;
19301;SDS011;9785;59.362;12.152;2023-05-10T09:23:42;5.13;;;2.57;;
19301;SDS011;9785;59.362;12.152;2023-05-10T09:26:15;4.97;;;2.40;;
19301;SDS011;9785;59.362;12.152;2023-05-10T09:28:50;6.43;;;2.90;;
19301;SDS011;9785;59.362;12.152;2023-05-10T09:31:19;5.00;;;2.73;;
19301;SDS011;9785;59.362;12.152;2023-05-10T09:33:48;3.00;;;2.70;;
19301;SDS011;9785;59.362;12.152;2023-05-10T09:36:17;2.50;;;2.30;;
19301;SDS011;9785;59.362;12.152;2023-05-10T09:38:45;2.40;;;2.20;;
19301;SDS011;9785;59.362;12.152;2023-05-10T09:41:17;3.40;;;2.57;;
19301;SDS011;9785;59.362;12.152;2023-05-10T09:43:45;2.63;;;2.20;;
19301;SDS011;9785;59.362;12.152;2023-05-10T09:46:14;7.97;;;2.40;;
19301;SDS011;9785;59.362;12.152;2023-05-10T09:48:43;5.03;;;2.47;;
19301;SDS011;9785;59.362;12.152;2023-05-10T09:51:18;4.03;;;2.20;;
19301;SDS011;9785;59.362;12.152;2023-05-10T09:53:47;2.80;;;2.20;;
19301;SDS011;9785;59.362;12.152;2023-05-10T09:59:05;5.43;;;2.60;;
19301;SDS011;9785;59.362;12.152;2023-05-10T10:01:34;4.47;;;2.73;;
19301;SDS011;9785;59.362;12.152;2023-05-10T10:04:03;2.77;;;2.53;;
19301;SDS011;9785;59.362;12.152;2023-05-10T10:06:35;3.80;;;2.20;;
19301;SDS011;9785;59.362;12.152;2023-05-10T10:09:04;4.40;;;2.60;;
19301;SDS011;9785;59.362;12.152;2023-05-10T10:11:34;2.83;;;2.40;;
19301;SDS011;9785;59.362;12.152;2023-05-10T10:14:04;2.83;;;2.40;;
19301;SDS011;9785;59.362;12.152;2023-05-10T10:16:33;4.83;;;2.30;;
19301;SDS011;9785;59.362;12.152;2023-05-10T10:19:01;4.80;;;2.20;;
19301;SDS011;9785;59.362;12.152;2023-05-10T10:21:30;5.50;;;2.70;;
19301;SDS011;9785;59.362;12.152;2023-05-10T10:23:59;3.63;;;2.70;;
19301;SDS011;9785;59.362;12.152;2023-05-10T10:26:28;2.67;;;2.07;;
19301;SDS011;9785;59.362;12.152;2023-05-10T10:29:00;2.40;;;2.20;;
19301;SDS011;9785;59.362;12.152;2023-05-10T10:31:34;6.83;;;2.10;;
19301;SDS011;9785;59.362;12.152;2023-05-10T10:34:05;6.90;;;2.40;;
19301;SDS011;9785;59.362;12.152;2023-05-10T10:36:39;3.47;;;2.20;;
19301;SDS011;9785;59.362;12.152;2023-05-10T10:39:09;5.30;;;2.20;;
19301;SDS011;9785;59.362;12.152;2023-05-10T10:41:39;5.10;;;2.40;;
19301;SDS011;9785;59.362;12.152;2023-05-10T10:44:23;4.27;;;2.30;;
19301;SDS011;9785;59.362;12.152;2023-05-10T10:47:06;4.53;;;2.30;;
19301;SDS011;9785;59.362;12.152;2023-05-10T10:49:38;6.33;;;2.20;;
19301;SDS011;9785;59.362;12.152;2023-05-10T10:52:13;4.50;;;2.20;;
19301;SDS011;9785;59.362;12.152;2023-05-10T10:54:46;2.70;;;2.20;;
19301;SDS011;9785;59.362;12.152;2023-05-10T10:57:18;3.20;;;2.23;;
19301;SDS011;9785;59.362;12.152;2023-05-10T10:59:47;2.30;;;2.20;;
19301;SDS011;9785;59.362;12.152;2023-05-10T11:02:44;4.60;;;2.60;;
19301;SDS011;9785;59.362;12.152;2023-05-10T11:08:09;3.20;;;2.20;;
19301;SDS011;9785;59.362;12.152;2023-05-10T11:10:38;5.47;;;2.30;;
19301;SDS011;9785;59.362;12.152;2023-05-10T11:13:08;2.77;;;2.50;;
19301;SDS011;9785;59.362;12.152;2023-05-10T11:15:37;5.63;;;3.03;;
19301;SDS011;9785;59.362;12.152;2023-05-10T11:20:51;2.70;;;2.50;;
19301;SDS011;9785;59.362;12.152;2023-05-10T11:23:20;8.10;;;2.40;;
19301;SDS011;9785;59.362;12.152;2023-05-10T11:25:48;3.03;;;2.23;;
19301;SDS011;9785;59.362;12.152;2023-05-10T11:28:17;3.93;;;2.20;;
19301;SDS011;9785;59.362;12.152;2023-05-10T11:30:46;5.63;;;2.50;;
19301;SDS011;9785;59.362;12.152;2023-05-10T11:33:15;3.97;;;2.47;;
19301;SDS011;9785;59.362;12.152;2023-05-10T11:35:44;3.30;;;2.07;;
19301;SDS011;9785;59.362;12.152;2023-05-10T11:38:15;2.53;;;2.10;;
19301;SDS011;9785;59.362;12.152;2023-05-10T11:40:43;3.07;;;2.30;;
19301;SDS011;9785;59.362;12.152;2023-05-10T11:43:12;2.13;;;2.03;;
19301;SDS011;9785;59.362;12.152;2023-05-10T11:45:40;2.40;;;2.20;;
19301;SDS011;9785;59.362;12.152;2023-05-10T11:48:09;2.20;;;2.00;;
19301;SDS011;9785;59.362;12.152;2023-05-10T11:50:38;6.80;;;2.53;;
19301;SDS011;9785;59.362;12.152;2023-05-10T11:53:07;6.00;;;2.30;;
19301;SDS011;9785;59.362;12.152;2023-05-10T11:55:37;2.50;;;2.30;;
19301;SDS011;9785;59.362;12.152;2023-05-10T11:58:05;5.97;;;2.40;;
19301;SDS011;9785;59.362;12.152;2023-05-10T12:00:34;2.80;;;2.20;;
19301;SDS011;9785;59.362;12.152;2023-05-10T12:03:02;4.80;;;2.40;;
19301;SDS011;9785;59.362;12.152;2023-05-10T12:05:31;5.13;;;2.67;;
19301;SDS011;9785;59.362;12.152;2023-05-10T12:08:13;2.47;;;2.30;;
19301;SDS011;9785;59.362;12.152;2023-05-10T12:10:43;2.40;;;2.20;;
19301;SDS011;9785;59.362;12.152;2023-05-10T12:13:12;10.57;;;2.30;;
19301;SDS011;9785;59.362;12.152;2023-05-10T12:15:42;3.07;;;2.57;;
19301;SDS011;9785;59.362;12.152;2023-05-10T12:18:11;6.87;;;2.47;;
19301;SDS011;9785;59.362;12.152;2023-05-10T12:20:40;3.67;;;2.33;;
19301;SDS011;9785;59.362;12.152;2023-05-10T12:23:09;3.55;;;2.33;;
19301;SDS011;9785;59.362;12.152;2023-05-10T12:25:38;5.55;;;2.47;;
19301;SDS011;9785;59.362;12.152;2023-05-10T12:28:08;2.50;;;2.38;;
19301;SDS011;9785;59.362;12.152;2023-05-10T12:30:37;2.33;;;2.13;;
19301;SDS011;9785;59.362;12.152;2023-05-10T12:33:10;2.28;;;2.08;;
19301;SDS011;9785;59.362;12.152;2023-05-10T12:35:45;4.80;;;2.17;;
19301;SDS011;9785;59.362;12.152;2023-05-10T12:38:24;2.53;;;2.20;;
19301;SDS011;9785;59.362;12.152;2023-05-10T12:40:53;3.40;;;2.28;;
19301;SDS011;9785;59.362;12.152;2023-05-10T12:43:23;4.10;;;2.65;;
19301;SDS011;9785;59.362;12.152;2023-05-10T12:45:51;2.33;;;2.22;;
19301;SDS011;9785;59.362;12.152;2023-05-10T12:48:20;2.83;;;2.15;;
19301;SDS011;9785;59.362;12.152;2023-05-10T12:50:49;6.05;;;2.22;;
19301;SDS011;9785;59.362;12.152;2023-05-10T12:53:18;3.70;;;2.20;;
19301;SDS011;9785;59.362;12.152;2023-05-10T12:55:46;2.33;;;2.15;;
19301;SDS011;9785;59.362;12.152;2023-05-10T12:58:15;3.42;;;2.70;;
19301;SDS011;9785;59.362;12.152;2023-05-10T13:01:01;3.83;;;2.05;;
19301;SDS011;9785;59.362;12.152;2023-05-10T13:03:31;2.67;;;2.20;;
19301;SDS011;9785;59.362;12.152;2023-05-10T13:06:00;7.25;;;2.78;;
19301;SDS011;9785;59.362;12.152;2023-05-10T13:08:28;6.55;;;2.20;;
19301;SDS011;9785;59.362;12.152;2023-05-10T13:11:00;4.03;;;2.70;;
19301;SDS011;9785;59.362;12.152;2023-05-10T13:13:28;3.20;;;2.25;;
19301;SDS011;9785;59.362;12.152;2023-05-10T13:15:57;4.68;;;2.38;;
19301;SDS011;9785;59.362;12.152;2023-05-10T13:18:27;4.78;;;2.60;;
19301;SDS011;9785;59.362;12.152;2023-05-10T13:20:55;3.60;;;2.40;;
19301;SDS011;9785;59.362;12.152;2023-05-10T13:23:24;2.55;;;2.38;;
19301;SDS011;9785;59.362;12.152;2023-05-10T13:25:53;6.65;;;2.40;;
19301;SDS011;9785;59.362;12.152;2023-05-10T13:28:21;3.05;;;2.08;;
19301;SDS011;9785;59.362;12.152;2023-05-10T13:30:50;2.35;;;2.13;;
19301;SDS011;9785;59.362;12.152;2023-05-10T13:33:18;5.35;;;2.30;;
19301;SDS011;9785;59.362;12.152;2023-05-10T13:35:48;3.33;;;2.08;;
19301;SDS011;9785;59.362;12.152;2023-05-10T13:38:20;2.97;;;2.15;;
19301;SDS011;9785;59.362;12.152;2023-05-10T13:40:49;2.92;;;2.30;;
19301;SDS011;9785;59.362;12.152;2023-05-10T13:43:19;4.95;;;2.53;;
19301;SDS011;9785;59.362;12.152;2023-05-10T13:45:47;4.30;;;2.50;;
19301;SDS011;9785;59.362;12.152;2023-05-10T13:48:16;5.85;;;2.35;;
19301;SDS011;9785;59.362;12.152;2023-05-10T13:50:45;4.30;;;2.20;;
19301;SDS011;9785;59.362;12.152;2023-05-10T13:53:15;3.65;;;2.20;;
19301;SDS011;9785;59.362;12.152;2023-05-10T13:55:43;3.15;;;2.30;;
19301;SDS011;9785;59.362;12.152;2023-05-10T13:58:12;2.88;;;2.33;;
19301;SDS011;9785;59.362;12.152;2023-05-10T14:00:41;6.18;;;2.38;;
19301;SDS011;9785;59.362;12.152;2023-05-10T14:03:09;5.60;;;2.40;;
19301;SDS011;9785;59.362;12.152;2023-05-10T14:05:38;4.57;;;2.35;;
19301;SDS011;9785;59.362;12.152;2023-05-10T14:08:07;5.53;;;2.25;;
19301;SDS011;9785;59.362;12.152;2023-05-10T14:10:37;4.97;;;2.08;;
19301;SDS011;9785;59.362;12.152;2023-05-10T14:13:06;2.20;;;2.00;;
19301;SDS011;9785;59.362;12.152;2023-05-10T14:15:35;3.47;;;2.55;;
19301;SDS011;9785;59.362;12.152;2023-05-10T14:18:03;7.70;;;2.50;;
19301;SDS011;9785;59.362;12.152;2023-05-10T14:20:32;4.35;;;2.10;;
19301;SDS011;9785;59.362;12.152;2023-05-10T14:23:01;4.85;;;2.40;;
19301;SDS011;9785;59.362;12.152;2023-05-10T14:25:32;2.30;;;2.10;;
19301;SDS011;9785;59.362;12.152;2023-05-10T14:28:02;4.72;;;2.22;;
19301;SDS011;9785;59.362;12.152;2023-05-10T14:30:31;3.28;;;2.13;;
19301;SDS011;9785;59.362;12.152;2023-05-10T14:33:01;3.28;;;2.20;;
19301;SDS011;9785;59.362;12.152;2023-05-10T14:35:29;3.33;;;2.35;;
19301;SDS011;9785;59.362;12.152;2023-05-10T14:37:58;4.28;;;2.55;;
19301;SDS011;9785;59.362;12.152;2023-05-10T14:40:27;6.18;;;2.40;;
19301;SDS011;9785;59.362;12.152;2023-05-10T14:42:55;2.95;;;2.25;;
19301;SDS011;9785;59.362;12.152;2023-05-10T14:45:25;5.22;;;2.38;;
19301;SDS011;9785;59.362;12.152;2023-05-10T14:47:54;5.82;;;2.33;;
19301;SDS011;9785;59.362;12.152;2023-05-10T14:50:22;6.25;;;2.55;;
19301;SDS011;9785;59.362;12.152;2023-05-10T14:53:02;2.30;;;2.10;;
19301;SDS011;9785;59.362;12.152;2023-05-10T14:55:31;3.85;;;2.38;;
19301;SDS011;9785;59.362;12.152;2023-05-10T14:58:01;2.60;;;2.03;;
19301;SDS011;9785;59.362;12.152;2023-05-10T15:00:31;1.90;;;1.88;;
19301;SDS011;9785;59.362;12.152;2023-05-10T15:03:00;6.50;;;2.38;;
19301;SDS011;9785;59.362;12.152;2023-05-10T15:05:30;5.38;;;2.08;;
19301;SDS011;9785;59.362;12.152;2023-05-10T15:07:59;3.97;;;2.00;;
19301;SDS011;9785;59.362;12.152;2023-05-10T15:10:27;4.18;;;2.30;;
19301;SDS011;9785;59.362;12.152;2023-05-10T15:12:59;2.22;;;2.00;;
19301;SDS011;9785;59.362;12.152;2023-05-10T15:15:28;6.05;;;2.30;;
19301;SDS011;9785;59.362;12.152;2023-05-10T15:17:58;2.17;;;2.00;;